Novo Imperador — CULB-7 — position and weather

sailwx.info

Track history (hours):
 
Tides and Currents Weather Stations Pressure Air Temp Water Temp Dewpoint Dewpoint Depression Visibility Wind Speed Wind Dir Waves Ship Positions

Novo Imperador

Last reported at 2018-Jun-20 15:24 UTC. Time now 2018-Jun-23 06:31 UTC.
Position N 38°27' W 009°07'.

Length 18 m.

MMSI: 204267000.

Date/timePositionNaut miles runAvg speedWind from/ knotsBaromVisibWave heightAir tempDewpointWater temp
2018-Jun-20 15:24N 38°27' W 009°07'0 0.0
2018-Jun-20 15:00N 38°27' W 009°07'0 0.0
2018-Jun-20 14:30N 38°27' W 009°07'0 0.0
2018-Jun-20 12:47N 38°26' W 009°07'0 0.4
2018-Jun-20 12:30N 38°26' W 009°07'3 5.4
2018-Jun-20 12:01N 38°25' W 009°09'4 8.5
2018-Jun-20 11:30N 38°24' W 009°15'4 8.6
2018-Jun-20 11:01N 38°25' W 009°20'5 8.9
2018-Jun-20 10:29N 38°26' W 009°26'3 6.7
2018-Jun-20 10:00N 38°28' W 009°30'1 1.0
2018-Jun-20 09:30N 38°28' W 009°29'0 0.8
2018-Jun-20 09:00N 38°28' W 009°29'0 0.9
2018-Jun-20 08:30N 38°27' W 009°30'1 1.0
2018-Jun-20 08:00N 38°28' W 009°31'0 0.8
2018-Jun-20 07:30N 38°27' W 009°31'0 0.5
2018-Jun-20 07:00N 38°27' W 009°31'2 3.5
2018-Jun-20 06:30N 38°26' W 009°33'1 1.3
2018-Jun-20 05:59N 38°26' W 009°33'0 0.9
2018-Jun-20 05:30N 38°26' W 009°33'0 0.3
2018-Jun-20 05:00N 38°26' W 009°33'0 0.6
2018-Jun-20 04:30N 38°26' W 009°33'3 6.8
2018-Jun-20 04:00N 38°26' W 009°29'4 8.6
2018-Jun-20 03:30N 38°25' W 009°24'4 8.4
2018-Jun-20 03:00N 38°25' W 009°18'4 8.1
2018-Jun-20 02:30N 38°24' W 009°13'4 8.1
2018-Jun-20 02:01N 38°25' W 009°08'1 0.1
2018-Jun-19 10:41N 38°26' W 009°07'0 0.7
2018-Jun-19 10:30N 38°26' W 009°07'0 0.0
2018-Jun-19 10:00N 38°26' W 009°07'0 0.0
2018-Jun-19 01:10N 38°26' W 009°07'0 0.3
2018-Jun-19 01:00N 38°26' W 009°07'1 2.5
2018-Jun-19 00:30N 38°26' W 009°08'4 8.0
2018-Jun-19 00:00N 38°24' W 009°13'4 7.5
2018-Jun-18 23:31N 38°25' W 009°17'4 7.8
2018-Jun-18 23:00N 38°26' W 009°22'4 8.0
2018-Jun-18 22:30N 38°27' W 009°27'4 8.0
2018-Jun-18 22:00N 38°28' W 009°32'4 7.9
2018-Jun-18 21:29N 38°30' W 009°36'4 8.4
2018-Jun-18 21:00N 38°32' W 009°41'4 8.4
2018-Jun-18 20:30N 38°34' W 009°45'4 8.0
2018-Jun-18 20:00N 38°37' W 009°49'4 7.3
2018-Jun-18 19:30N 38°39' W 009°53'  
2018-Jun-14 04:15N 38°45' W 009°49'1 3.9
2018-Jun-14 03:57N 38°44' W 009°49'3 5.8
2018-Jun-14 03:30N 38°43' W 009°46'3 5.8
2018-Jun-14 03:00N 38°42' W 009°43'3 5.4
2018-Jun-14 02:30N 38°40' W 009°40'3 6.2
2018-Jun-14 02:00N 38°39' W 009°37'3 5.9
2018-Jun-14 01:29N 38°37' W 009°33'3 6.4
2018-Jun-14 01:00N 38°35' W 009°30'3 6.8
2018-Jun-14 00:30N 38°33' W 009°27'4 7.5
2018-Jun-14 00:00N 38°31' W 009°23'4 8.1
2018-Jun-13 23:30N 38°28' W 009°19'4 8.0
2018-Jun-13 23:00N 38°25' W 009°15'5 7.2
2018-Jun-13 22:23N 38°25' W 009°10'3 8.0
2018-Jun-13 22:00N 38°26' W 009°06'0 0.0
2018-Jun-13 04:56N 38°26' W 009°07'0 0.6
2018-Jun-13 04:30N 38°26' W 009°06'6 7.9
2018-Jun-13 03:45N 38°24' W 009°13'2 8.1
2018-Jun-13 03:27N 38°24' W 009°17'4 8.0
2018-Jun-13 02:59N 38°26' W 009°21'5 8.6
2018-Jun-13 02:27N 38°27' W 009°27'4 8.3
2018-Jun-13 02:00N 38°29' W 009°31'5 8.6
2018-Jun-13 01:25N 38°31' W 009°36'5 8.7
2018-Jun-13 00:52N 38°34' W 009°41'3 8.3
2018-Jun-13 00:30N 38°36' W 009°45'4 8.2
2018-Jun-13 00:00N 38°38' W 009°49'5 0.2
2018-Jun-12 03:17N 38°41' W 009°54'2 6.8
2018-Jun-12 02:57N 38°39' W 009°52'3 7.0
2018-Jun-12 02:29N 38°37' W 009°49'4 8.2
2018-Jun-12 02:00N 38°35' W 009°45'4 8.1
2018-Jun-12 01:30N 38°34' W 009°40'4 7.9
2018-Jun-12 01:00N 38°32' W 009°35'4 7.6
2018-Jun-12 00:30N 38°31' W 009°31'4 8.3
2018-Jun-12 00:00N 38°29' W 009°26'4 8.5
2018-Jun-11 23:29N 38°27' W 009°21'4 8.5
2018-Jun-11 23:00N 38°25' W 009°16'5 7.7
2018-Jun-11 22:17N 38°25' W 009°09'2 8.2
2018-Jun-11 22:00N 38°26' W 009°07'0 0.0
2018-Jun-11 03:51N 38°26' W 009°07'0 0.2
2018-Jun-11 03:31N 38°26' W 009°07'6 6.6
2018-Jun-11 02:39N 38°24' W 009°13'1 8.2
2018-Jun-11 02:30N 38°24' W 009°15'4 8.2
2018-Jun-11 02:00N 38°25' W 009°20'5 8.4
2018-Jun-11 01:28N 38°27' W 009°25'4 8.8
2018-Jun-11 01:00N 38°29' W 009°29'4 8.9
2018-Jun-11 00:30N 38°32' W 009°33'5 8.9
2018-Jun-10 23:59N 38°35' W 009°38'4 8.6
2018-Jun-10 23:30N 38°37' W 009°42'4 8.4
2018-Jun-10 23:00N 38°40' W 009°46'  
Track history (hours):
 
Tides and Currents Weather Stations Pressure Air Temp Water Temp Dewpoint Dewpoint Depression Visibility Wind Speed Wind Dir Waves Ship Positions

Novo Imperador

Last reported at 2018-Jun-20 15:24 UTC. Time now 2018-Jun-23 06:31 UTC.
Position N 38°27' W 009°07'.

Length 18 m.

MMSI: 204267000.

Date/timePositionNaut miles runAvg speedWind from/ knotsBaromVisibWave heightAir tempDewpointWater temp
2018-Jun-20 15:24N 38°27' W 009°07'0 0.0
2018-Jun-20 15:00N 38°27' W 009°07'0 0.0
2018-Jun-20 14:30N 38°27' W 009°07'0 0.0
2018-Jun-20 12:47N 38°26' W 009°07'0 0.4
2018-Jun-20 12:30N 38°26' W 009°07'3 5.4
2018-Jun-20 12:01N 38°25' W 009°09'4 8.5
2018-Jun-20 11:30N 38°24' W 009°15'4 8.6
2018-Jun-20 11:01N 38°25' W 009°20'5 8.9
2018-Jun-20 10:29N 38°26' W 009°26'3 6.7
2018-Jun-20 10:00N 38°28' W 009°30'1 1.0
2018-Jun-20 09:30N 38°28' W 009°29'0 0.8
2018-Jun-20 09:00N 38°28' W 009°29'0 0.9
2018-Jun-20 08:30N 38°27' W 009°30'1 1.0
2018-Jun-20 08:00N 38°28' W 009°31'0 0.8
2018-Jun-20 07:30N 38°27' W 009°31'0 0.5
2018-Jun-20 07:00N 38°27' W 009°31'2 3.5
2018-Jun-20 06:30N 38°26' W 009°33'1 1.3
2018-Jun-20 05:59N 38°26' W 009°33'0 0.9
2018-Jun-20 05:30N 38°26' W 009°33'0 0.3
2018-Jun-20 05:00N 38°26' W 009°33'0 0.6
2018-Jun-20 04:30N 38°26' W 009°33'3 6.8
2018-Jun-20 04:00N 38°26' W 009°29'4 8.6
2018-Jun-20 03:30N 38°25' W 009°24'4 8.4
2018-Jun-20 03:00N 38°25' W 009°18'4 8.1
2018-Jun-20 02:30N 38°24' W 009°13'4 8.1
2018-Jun-20 02:01N 38°25' W 009°08'1 0.1
2018-Jun-19 10:41N 38°26' W 009°07'0 0.7
2018-Jun-19 10:30N 38°26' W 009°07'0 0.0
2018-Jun-19 10:00N 38°26' W 009°07'0 0.0
2018-Jun-19 01:10N 38°26' W 009°07'0 0.3
2018-Jun-19 01:00N 38°26' W 009°07'1 2.5
2018-Jun-19 00:30N 38°26' W 009°08'4 8.0
2018-Jun-19 00:00N 38°24' W 009°13'4 7.5
2018-Jun-18 23:31N 38°25' W 009°17'4 7.8
2018-Jun-18 23:00N 38°26' W 009°22'4 8.0
2018-Jun-18 22:30N 38°27' W 009°27'4 8.0
2018-Jun-18 22:00N 38°28' W 009°32'4 7.9
2018-Jun-18 21:29N 38°30' W 009°36'4 8.4
2018-Jun-18 21:00N 38°32' W 009°41'4 8.4
2018-Jun-18 20:30N 38°34' W 009°45'4 8.0
2018-Jun-18 20:00N 38°37' W 009°49'4 7.3
2018-Jun-18 19:30N 38°39' W 009°53'  
2018-Jun-14 04:15N 38°45' W 009°49'1 3.9
2018-Jun-14 03:57N 38°44' W 009°49'3 5.8
2018-Jun-14 03:30N 38°43' W 009°46'3 5.8
2018-Jun-14 03:00N 38°42' W 009°43'3 5.4
2018-Jun-14 02:30N 38°40' W 009°40'3 6.2
2018-Jun-14 02:00N 38°39' W 009°37'3 5.9
2018-Jun-14 01:29N 38°37' W 009°33'3 6.4
2018-Jun-14 01:00N 38°35' W 009°30'3 6.8
2018-Jun-14 00:30N 38°33' W 009°27'4 7.5
2018-Jun-14 00:00N 38°31' W 009°23'4 8.1
2018-Jun-13 23:30N 38°28' W 009°19'4 8.0
2018-Jun-13 23:00N 38°25' W 009°15'5 7.2
2018-Jun-13 22:23N 38°25' W 009°10'3 8.0
2018-Jun-13 22:00N 38°26' W 009°06'0 0.0
2018-Jun-13 04:56N 38°26' W 009°07'0 0.6
2018-Jun-13 04:30N 38°26' W 009°06'6 7.9
2018-Jun-13 03:45N 38°24' W 009°13'2 8.1
2018-Jun-13 03:27N 38°24' W 009°17'4 8.0
2018-Jun-13 02:59N 38°26' W 009°21'5 8.6
2018-Jun-13 02:27N 38°27' W 009°27'4 8.3
2018-Jun-13 02:00N 38°29' W 009°31'5 8.6
2018-Jun-13 01:25N 38°31' W 009°36'5 8.7
2018-Jun-13 00:52N 38°34' W 009°41'3 8.3
2018-Jun-13 00:30N 38°36' W 009°45'4 8.2
2018-Jun-13 00:00N 38°38' W 009°49'5 0.2
2018-Jun-12 03:17N 38°41' W 009°54'2 6.8
2018-Jun-12 02:57N 38°39' W 009°52'3 7.0
2018-Jun-12 02:29N 38°37' W 009°49'4 8.2
2018-Jun-12 02:00N 38°35' W 009°45'4 8.1
2018-Jun-12 01:30N 38°34' W 009°40'4 7.9
2018-Jun-12 01:00N 38°32' W 009°35'4 7.6
2018-Jun-12 00:30N 38°31' W 009°31'4 8.3
2018-Jun-12 00:00N 38°29' W 009°26'4 8.5
2018-Jun-11 23:29N 38°27' W 009°21'4 8.5
2018-Jun-11 23:00N 38°25' W 009°16'5 7.7
2018-Jun-11 22:17N 38°25' W 009°09'2 8.2
2018-Jun-11 22:00N 38°26' W 009°07'0 0.0
2018-Jun-11 03:51N 38°26' W 009°07'0 0.2
2018-Jun-11 03:31N 38°26' W 009°07'6 6.6
2018-Jun-11 02:39N 38°24' W 009°13'1 8.2
2018-Jun-11 02:30N 38°24' W 009°15'4 8.2
2018-Jun-11 02:00N 38°25' W 009°20'5 8.4
2018-Jun-11 01:28N 38°27' W 009°25'4 8.8
2018-Jun-11 01:00N 38°29' W 009°29'4 8.9
2018-Jun-11 00:30N 38°32' W 009°33'5 8.9
2018-Jun-10 23:59N 38°35' W 009°38'4 8.6
2018-Jun-10 23:30N 38°37' W 009°42'4 8.4
2018-Jun-10 23:00N 38°40' W 009°46'  

Dump ship's entire track history